Time;durP1;ratioP1;P1;durP2;ratioP2;P2;SDS_P1;SDS_P2;PMS_P1;PMS_P2;Temp;Humidity;BMP_temperature;BMP_pressure;BME280_temperature;BME280_humidity;BME280_pressure;Samples;Min_cycle;Max_cycle;Signal;HPM_P1;HPM_P2
2022/04/09 00:00:21;;;;;;;2.83;0.40;;;;;;;7.69;86.61;95697.34;6165825;28;20760;-83
2022/04/09 00:03:23;;;;;;;0.73;0.50;;;;;;;7.64;86.21;95694.38;6182250;28;20267;-82
2022/04/09 00:06:25;;;;;;;0.20;0.20;;;;;;;7.61;85.84;95688.59;6164831;28;20239;-82
2022/04/09 00:09:27;;;;;;;0.30;0.30;;;;;;;7.58;86.14;95683.69;6165241;28;20569;-82
2022/04/09 00:12:29;;;;;;;0.40;0.40;;;;;;;7.59;86.39;95669.53;6180485;28;20228;-83
2022/04/09 00:15:31;;;;;;;0.37;0.37;;;;;;;7.53;85.85;95678.88;6163793;28;20696;-83
2022/04/09 00:18:34;;;;;;;1.20;0.93;;;;;;;7.47;86.26;95673.44;6180669;28;20226;-82
2022/04/09 00:21:36;;;;;;;0.97;0.50;;;;;;;7.41;86.36;95669.59;6164379;28;20243;-82
2022/04/09 00:24:38;;;;;;;0.50;0.50;;;;;;;7.35;86.14;95663.16;6179812;28;20710;-84
2022/04/09 00:27:41;;;;;;;0.30;0.30;;;;;;;7.32;86.69;95652.97;6179434;28;20240;-83
2022/04/09 00:30:43;;;;;;;0.37;0.30;;;;;;;7.29;86.21;95650.66;6175356;28;20671;-82
2022/04/09 00:33:46;;;;;;;0.40;0.40;;;;;;;7.28;86.73;95651.66;6191877;28;20241;-82
2022/04/09 00:36:48;;;;;;;0.80;0.40;;;;;;;7.27;86.59;95644.75;6163717;28;20233;-83
2022/04/09 00:39:50;;;;;;;0.30;0.30;;;;;;;7.23;87.01;95635.53;6163991;28;20601;-82
2022/04/09 00:42:53;;;;;;;0.30;0.30;;;;;;;7.23;86.79;95625.03;6180409;28;20683;-82
2022/04/09 00:45:55;;;;;;;0.97;0.47;;;;;;;7.26;87.03;95637.03;6179951;28;20608;-82
2022/04/09 00:48:57;;;;;;;1.30;0.40;;;;;;;7.23;86.82;95624.22;6162711;28;20240;-83
2022/04/09 00:52:05;;;;;;;0.83;0.50;;;;;;;7.26;87.13;95618.66;6164388;28;20738;-81
2022/04/09 00:55:08;;;;;;;0.30;0.30;;;;;;;7.24;86.88;95610.94;6162669;28;20255;-82
2022/04/09 00:58:16;;;;;;;0.73;0.73;;;;;;;7.24;87.21;95615.38;6162848;28;20230;-82
2022/04/09 01:01:19;;;;;;;0.30;0.30;;;;;;;7.26;87.61;95606.38;6178805;28;20765;-82
2022/04/09 01:04:22;;;;;;;0.47;0.40;;;;;;;7.27;87.91;95605.41;6179291;28;20725;-82
2022/04/09 01:07:24;;;;;;;0.43;0.43;;;;;;;7.28;87.64;95600.97;6163945;28;20235;-82
2022/04/09 01:10:27;;;;;;;0.40;0.40;;;;;;;7.27;87.90;95594.91;6162795;28;20235;-82
2022/04/09 01:13:29;;;;;;;1.03;0.40;;;;;;;7.28;87.72;95578.19;6164058;28;20715;-82
2022/04/09 01:16:32;;;;;;;0.60;0.50;;;;;;;7.27;87.96;95566.03;6159511;28;20228;-82
2022/04/09 01:19:34;;;;;;;0.37;0.37;;;;;;;7.27;87.93;95576.53;6146495;28;20243;-83
2022/04/09 01:22:37;;;;;;;0.83;0.50;;;;;;;7.29;88.22;95578.97;6175810;28;20236;-82
2022/04/09 01:25:40;;;;;;;0.53;0.47;;;;;;;7.31;88.19;95585.72;6166281;28;20241;-82
2022/04/09 01:28:45;;;;;;;0.40;0.40;;;;;;;7.29;88.36;95568.50;6178273;28;20254;-82
2022/04/09 01:31:47;;;;;;;0.50;0.50;;;;;;;7.29;88.54;95565.88;6173160;28;20285;-82
2022/04/09 01:34:52;;;;;;;0.40;0.40;;;;;;;7.32;88.34;95561.13;6178754;28;20232;-82
2022/04/09 01:37:54;;;;;;;0.93;0.53;;;;;;;7.32;88.03;95549.81;6178515;28;20235;-81
2022/04/09 01:40:56;;;;;;;0.53;0.53;;;;;;;7.31;89.10;95542.94;6161629;28;20312;-82
2022/04/09 01:44:04;;;;;;;0.83;0.40;;;;;;;7.32;89.31;95515.72;6154432;28;20242;-82
2022/04/09 01:47:06;;;;;;;0.60;0.30;;;;;;;7.31;88.75;95509.63;6173879;28;20246;-82
2022/04/09 01:50:10;;;;;;;1.93;0.50;;;;;;;7.30;88.90;95501.91;6179525;28;20664;-83
2022/04/09 01:53:12;;;;;;;0.60;0.33;;;;;;;7.28;88.74;95509.16;6176265;28;20238;-82
2022/04/09 01:56:16;;;;;;;0.40;0.40;;;;;;;7.24;88.84;95497.31;6162836;28;20246;-82
2022/04/09 01:59:18;;;;;;;0.30;0.30;;;;;;;7.21;89.56;95503.69;6163023;28;20598;-82
2022/04/09 02:02:21;;;;;;;0.30;0.30;;;;;;;7.17;89.09;95491.06;6178187;28;20284;-84
2022/04/09 02:05:24;;;;;;;1.10;0.37;;;;;;;7.12;89.31;95490.69;6166094;28;20344;-82
2022/04/09 02:08:27;;;;;;;0.83;0.40;;;;;;;7.05;88.91;95500.97;6178636;28;20644;-80
2022/04/09 02:11:29;;;;;;;0.60;0.60;;;;;;;6.97;88.94;95503.56;6179422;28;20242;-83
2022/04/09 02:14:31;;;;;;;0.67;0.40;;;;;;;6.93;89.22;95495.16;6165771;28;20229;-83
2022/04/09 02:17:35;;;;;;;0.30;0.30;;;;;;;6.85;88.89;95496.91;6161970;28;20231;-82
2022/04/09 02:20:38;;;;;;;0.40;0.30;;;;;;;6.78;88.99;95482.78;6178052;28;20247;-83
2022/04/09 02:23:40;;;;;;;0.63;0.30;;;;;;;6.71;89.31;95473.88;6167049;28;20248;-82
2022/04/09 02:26:42;;;;;;;0.37;0.30;;;;;;;6.61;88.67;95474.78;6175335;28;20229;-82
2022/04/09 02:29:46;;;;;;;0.80;0.50;;;;;;;6.49;88.86;95469.97;6162747;28;20284;-82
2022/04/09 02:32:52;;;;;;;1.57;0.40;;;;;;;6.46;89.53;95475.50;6167982;28;20241;-82
2022/04/09 02:36:00;;;;;;;1.43;0.53;;;;;;;6.34;89.14;95471.47;6170165;28;20246;-82
2022/04/09 02:39:03;;;;;;;3.10;0.60;;;;;;;6.25;88.77;95478.44;6154177;28;20250;-82
2022/04/09 02:42:06;;;;;;;5.70;0.60;;;;;;;6.16;88.53;95468.88;6166193;28;20697;-82
2022/04/09 02:45:11;;;;;;;0.60;0.40;;;;;;;6.11;88.65;95466.69;6168007;28;20314;-83
2022/04/09 02:48:15;;;;;;;0.47;0.47;;;;;;;6.09;88.61;95460.78;6183610;28;20234;-83
2022/04/09 02:51:19;;;;;;;2.30;0.40;;;;;;;6.03;88.65;95458.78;6186035;28;20225;-83
2022/04/09 02:54:22;;;;;;;1.17;0.37;;;;;;;6.00;89.44;95451.22;6166792;28;20236;-82
2022/04/09 02:57:25;;;;;;;1.50;0.40;;;;;;;5.94;88.86;95457.06;6166917;28;20232;-83
2022/04/09 03:00:28;;;;;;;1.13;0.50;;;;;;;5.86;88.70;95460.41;6182426;28;20318;-82
2022/04/09 03:03:36;;;;;;;3.17;1.77;;;;;;;5.78;88.57;95444.63;6181692;28;20636;-82
2022/04/09 03:06:39;;;;;;;0.70;0.60;;;;;;;5.71;88.97;95433.06;6166963;28;20226;-82
2022/04/09 03:09:42;;;;;;;1.87;0.60;;;;;;;5.66;88.67;95437.13;6184713;28;20312;-82
2022/04/09 03:12:47;;;;;;;1.17;0.70;;;;;;;5.59;88.57;95439.50;6167746;28;20236;-82
2022/04/09 03:15:50;;;;;;;0.67;0.50;;;;;;;5.54;88.53;95454.81;6184559;28;20332;-83
2022/04/09 03:18:55;;;;;;;1.50;0.47;;;;;;;5.48;89.10;95466.72;6168036;28;20331;-82
2022/04/09 03:21:57;;;;;;;0.87;0.50;;;;;;;5.39;88.79;95461.53;6183583;28;20567;-82
2022/04/09 03:25:02;;;;;;;0.60;0.43;;;;;;;5.30;88.63;95452.75;6182296;28;20721;-82
2022/04/09 03:28:06;;;;;;;0.60;0.60;;;;;;;5.30;88.86;95465.00;6159048;28;20715;-82
2022/04/09 03:31:10;;;;;;;0.50;0.50;;;;;;;5.27;89.06;95483.59;6167048;28;20328;-82
2022/04/09 03:34:13;;;;;;;0.63;0.40;;;;;;;5.21;88.84;95490.22;6181945;28;20311;-82
2022/04/09 03:37:16;;;;;;;2.33;0.40;;;;;;;5.21;88.32;95485.00;6166491;28;20800;-82
2022/04/09 03:40:18;;;;;;;2.87;0.40;;;;;;;5.26;88.56;95481.94;6164657;28;20276;-82
2022/04/09 03:43:21;;;;;;;2.10;0.70;;;;;;;5.32;88.60;95497.06;6181442;28;20698;-82
2022/04/09 03:46:25;;;;;;;0.37;0.37;;;;;;;5.44;88.50;95493.28;6165172;28;20237;-82
2022/04/09 03:49:30;;;;;;;1.23;0.50;;;;;;;5.53;88.26;95497.63;6157076;28;20229;-81
2022/04/09 03:52:32;;;;;;;0.60;0.50;;;;;;;5.62;89.01;95559.56;6176403;28;20225;-82
2022/04/09 03:55:34;;;;;;;2.67;0.53;;;;;;;5.74;89.08;95607.31;6176720;28;20252;-83
2022/04/09 03:58:39;;;;;;;0.50;0.50;;;;;;;5.89;89.14;95637.28;6163483;28;20248;-82
2022/04/09 04:01:47;;;;;;;0.83;0.73;;;;;;;6.04;88.76;95658.59;6162957;28;20237;-82
2022/04/09 04:04:52;;;;;;;1.90;0.77;;;;;;;6.58;90.39;95642.84;6161997;28;20262;-82
2022/04/09 04:07:55;;;;;;;0.90;0.60;;;;;;;7.09;89.18;95643.13;6161823;28;20727;-82
2022/04/09 04:10:58;;;;;;;0.97;0.60;;;;;;;7.30;88.63;95644.44;6166354;28;20622;-82
2022/04/09 04:14:05;;;;;;;2.40;0.63;;;;;;;7.38;88.43;95649.75;6161825;28;20291;-82
2022/04/09 04:17:08;;;;;;;0.50;0.50;;;;;;;7.43;88.38;95659.78;6161048;28;20289;-83
2022/04/09 04:20:12;;;;;;;0.30;0.30;;;;;;;7.53;88.56;95665.75;6160692;28;20712;-82
2022/04/09 04:23:17;;;;;;;1.07;0.40;;;;;;;7.62;88.66;95669.25;6179079;28;20235;-82
2022/04/09 04:26:19;;;;;;;0.87;0.47;;;;;;;7.64;89.20;95677.78;6162299;28;20222;-82
2022/04/09 04:29:28;;;;;;;0.60;0.57;;;;;;;7.65;88.90;95692.56;6166179;28;20261;-82
2022/04/09 04:32:30;;;;;;;0.43;0.40;;;;;;;7.63;88.98;95676.16;6184048;28;20728;-83
2022/04/09 04:35:33;;;;;;;0.50;0.40;;;;;;;7.62;89.50;95708.63;6163948;28;20238;-82
2022/04/09 04:38:35;;;;;;;0.73;0.53;;;;;;;7.61;89.16;95726.19;6178522;28;20322;-83
2022/04/09 04:41:37;;;;;;;0.40;0.40;;;;;;;7.62;90.06;95738.31;6167074;28;20252;-83
2022/04/09 04:44:39;;;;;;;0.90;0.53;;;;;;;7.68;88.63;95716.72;6172670;28;20335;-82
2022/04/09 04:47:49;;;;;;;1.87;0.53;;;;;;;8.05;87.09;95734.84;6180147;28;20394;-83
2022/04/09 04:50:55;;;;;;;0.50;0.30;;;;;;;8.23;84.70;95716.38;6164458;28;20231;-82
2022/04/09 05:53:32;;;;;;;0.70;0.30;;;;;;;9.79;66.42;95811.38;5020592;28;20233;-82
2022/04/09 05:56:36;;;;;;;0.40;0.40;;;;;;;9.79;65.70;95816.63;6160250;28;20360;-84
2022/04/09 05:59:39;;;;;;;0.87;0.40;;;;;;;9.76;65.49;95848.59;6160077;28;20233;-84
2022/04/09 06:02:43;;;;;;;0.40;0.40;;;;;;;9.63;66.67;95912.28;6177620;28;20244;-91
2022/04/09 06:05:59;;;;;;;0.93;0.40;;;;;;;9.49;65.51;95915.50;6164148;28;20229;-86
2022/04/09 06:09:25;;;;;;;0.50;0.50;;;;;;;9.04;67.09;95929.81;6179005;28;20234;-86
2022/04/09 06:12:30;;;;;;;0.30;0.30;;;;;;;8.51;68.57;95964.13;6162497;28;20246;-85
2022/04/09 06:15:40;;;;;;;0.80;0.50;;;;;;;7.91;69.64;96010.34;6178438;28;20247;-89
2022/04/09 06:18:47;;;;;;;0.30;0.30;;;;;;;7.44;70.36;96055.09;6180164;28;20236;-83
2022/04/09 06:21:50;;;;;;;0.30;0.30;;;;;;;6.92;70.83;96091.38;6183350;28;20244;-86
2022/04/09 06:24:55;;;;;;;0.20;0.20;;;;;;;6.51;72.39;96082.00;6182444;28;20250;-81
2022/04/09 06:27:59;;;;;;;0.93;0.57;;;;;;;6.27;73.83;96134.81;6166585;28;20338;-84
2022/04/09 06:31:04;;;;;;;0.30;0.20;;;;;;;6.02;73.08;96163.25;6188573;28;20759;-82
2022/04/09 06:34:10;;;;;;;0.60;0.40;;;;;;;5.75;74.32;96176.88;6182920;28;20266;-82
2022/04/09 06:37:14;;;;;;;0.77;0.40;;;;;;;5.47;74.03;96192.31;6178556;28;20233;-81
2022/04/09 06:40:17;;;;;;;0.30;0.30;;;;;;;5.32;75.09;96213.66;6177980;28;20244;-81
2022/04/09 06:43:20;;;;;;;1.60;0.60;;;;;;;5.27;75.08;96218.47;6180484;28;20332;-81
2022/04/09 06:46:43;;;;;;;0.30;0.30;;;;;;;5.09;75.28;96224.22;6179937;28;20759;-81
2022/04/09 06:49:52;;;;;;;0.40;0.40;;;;;;;5.00;75.37;96234.59;6162446;28;20225;-81
2022/04/09 06:52:57;;;;;;;0.40;0.40;;;;;;;4.82;75.00;96243.00;6122710;28;20268;-81
2022/04/09 06:56:06;;;;;;;0.50;0.47;;;;;;;4.86;75.28;96269.72;6177850;28;20961;-81
2022/04/09 06:59:09;;;;;;;0.50;0.50;;;;;;;4.80;74.08;96268.41;6160984;28;20302;-82
2022/04/09 07:02:12;;;;;;;0.60;0.60;;;;;;;4.69;74.42;96276.28;6162279;28;20335;-82
2022/04/09 07:05:14;;;;;;;0.70;0.70;;;;;;;4.61;74.96;96276.06;6178297;28;20243;-81
2022/04/09 07:08:17;;;;;;;0.80;0.80;;;;;;;4.64;74.90;96285.44;6161333;28;20779;-82
2022/04/09 07:11:19;;;;;;;0.90;0.90;;;;;;;4.48;73.95;96304.13;6169985;28;20710;-81
2022/04/09 07:14:21;;;;;;;0.90;0.90;;;;;;;4.41;75.03;96305.50;6150507;28;20727;-81
2022/04/09 07:17:29;;;;;;;2.03;1.50;;;;;;;4.40;75.21;96324.75;6171143;28;20228;-81
2022/04/09 07:20:33;;;;;;;2.00;1.70;;;;;;;4.34;73.37;96344.34;6177219;28;20232;-82
2022/04/09 07:23:35;;;;;;;1.90;1.80;;;;;;;4.29;72.40;96383.03;6171119;28;20232;-80
2022/04/09 07:26:37;;;;;;;1.93;1.83;;;;;;;4.27;73.87;96386.72;6198779;28;20233;-84
2022/04/09 07:29:39;;;;;;;1.70;1.60;;;;;;;4.23;71.64;96404.38;6191393;28;20228;-81
2022/04/09 07:32:42;;;;;;;1.73;1.63;;;;;;;4.26;72.03;96414.63;6206299;28;20242;-87
2022/04/09 07:35:44;;;;;;;2.17;1.70;;;;;;;4.32;72.34;96377.56;6181611;28;20239;-81
2022/04/09 07:38:46;;;;;;;1.83;1.50;;;;;;;4.35;71.27;96419.13;6183642;28;20230;-82
2022/04/09 07:41:49;;;;;;;1.90;1.70;;;;;;;4.35;72.23;96419.13;6181271;28;20231;-82
2022/04/09 07:44:52;;;;;;;1.60;1.50;;;;;;;4.37;71.84;96447.75;6182091;28;20603;-81
2022/04/09 07:47:57;;;;;;;1.37;1.27;;;;;;;4.47;71.95;96458.34;6165749;28;20225;-84
2022/04/09 07:50:59;;;;;;;1.53;1.20;;;;;;;4.57;69.93;96467.16;6181451;28;20328;-84
2022/04/09 07:54:01;;;;;;;0.80;0.80;;;;;;;4.59;70.35;96473.91;6165683;28;20247;-84
2022/04/09 07:57:04;;;;;;;0.87;0.87;;;;;;;4.61;70.19;96486.84;6181684;28;20507;-84
2022/04/09 08:00:08;;;;;;;1.13;0.63;;;;;;;4.69;70.58;96515.88;6165538;28;20208;-89
2022/04/09 08:03:14;;;;;;;0.60;0.60;;;;;;;4.63;68.14;96526.75;6185763;28;20235;-85
2022/04/09 08:06:17;;;;;;;1.43;1.33;;;;;;;4.69;70.06;96514.06;6185975;28;20226;-87
2022/04/09 08:09:19;;;;;;;0.50;0.50;;;;;;;4.67;68.90;96536.06;6173583;28;20232;-84
2022/04/09 08:12:21;;;;;;;0.67;0.60;;;;;;;4.69;69.12;96547.22;6149653;28;21333;-86
2022/04/09 08:15:24;;;;;;;1.23;0.80;;;;;;;4.75;68.90;96549.38;6146583;28;20719;-84
2022/04/09 08:18:26;;;;;;;0.67;0.67;;;;;;;4.91;67.60;96539.41;6156626;28;20248;-83
2022/04/09 08:21:37;;;;;;;1.10;0.93;;;;;;;5.04;67.19;96550.63;6164179;28;20715;-84
2022/04/09 08:24:41;;;;;;;0.80;0.80;;;;;;;5.10;66.16;96575.44;6180935;28;20236;-86
2022/04/09 08:27:44;;;;;;;1.00;1.00;;;;;;;5.02;65.12;96554.28;6180422;28;20241;-84
2022/04/09 08:30:46;;;;;;;2.20;1.00;;;;;;;5.06;65.00;96574.88;6192485;28;20251;-84
2022/04/09 08:33:49;;;;;;;1.87;1.77;;;;;;;5.10;64.57;96597.19;6182664;28;20276;-86
2022/04/09 08:36:51;;;;;;;3.83;2.03;;;;;;;5.11;64.62;96596.25;6164299;28;20284;-87
2022/04/09 08:39:54;;;;;;;2.30;2.10;;;;;;;5.13;64.75;96602.22;6164247;28;20245;-85
2022/04/09 08:42:58;;;;;;;2.33;2.13;;;;;;;5.24;64.65;96617.09;6164230;28;20494;-86
2022/04/09 08:46:02;;;;;;;4.23;2.67;;;;;;;5.18;64.53;96607.09;6164636;28;20229;-93
2022/04/09 08:49:06;;;;;;;4.67;2.50;;;;;;;5.14;66.21;96603.03;6158344;28;20300;-85
2022/04/09 08:52:08;;;;;;;5.03;3.00;;;;;;;5.06;63.83;96584.50;6180493;28;20374;-88
2022/04/09 08:55:13;;;;;;;3.17;2.60;;;;;;;5.19;63.95;96593.09;6159591;28;20248;-84
2022/04/09 08:58:17;;;;;;;4.20;3.33;;;;;;;5.37;65.02;96594.28;6145226;28;20230;-90
2022/04/09 09:01:22;;;;;;;3.47;3.17;;;;;;;5.43;63.99;96596.41;6156480;28;20294;-82
2022/04/09 09:04:25;;;;;;;3.73;3.33;;;;;;;5.53;63.52;96614.84;6166540;28;20237;-85
2022/04/09 09:07:28;;;;;;;4.93;3.83;;;;;;;5.53;63.98;96623.53;6154662;28;20272;-83
2022/04/09 09:10:31;;;;;;;3.80;3.50;;;;;;;5.54;64.12;96648.75;6160329;28;20604;-85
2022/04/09 09:13:57;;;;;;;4.87;3.93;;;;;;;5.35;62.56;96648.50;6155732;28;20808;-85
2022/04/09 09:17:02;;;;;;;4.30;3.87;;;;;;;5.35;62.68;96668.59;6177396;28;20270;-86
2022/04/09 09:20:13;;;;;;;6.27;4.27;;;;;;;5.38;63.58;96674.44;6179809;28;20624;-82
2022/04/09 09:23:27;;;;;;;4.53;3.43;;;;;;;5.36;63.20;96717.34;6163841;28;20327;-82
2022/04/09 09:26:29;;;;;;;6.60;4.20;;;;;;;5.32;63.74;96701.03;6180405;28;20229;-83
2022/04/09 09:29:33;;;;;;;4.00;3.70;;;;;;;5.31;61.89;96680.22;6182391;28;20253;-83
2022/04/09 09:32:35;;;;;;;4.27;3.60;;;;;;;5.40;62.83;96648.97;6138023;28;20235;-83
2022/04/09 09:35:52;;;;;;;3.93;3.50;;;;;;;5.52;62.74;96650.66;6154638;28;20600;-83
2022/04/09 09:39:20;;;;;;;3.53;3.20;;;;;;;5.53;61.51;96657.56;6165513;28;20236;-90
2022/04/09 09:42:24;;;;;;;5.60;3.70;;;;;;;5.55;62.74;96679.22;6180050;28;20237;-89
2022/04/09 09:45:41;;;;;;;3.43;3.13;;;;;;;5.75;63.08;96690.78;6163859;28;20772;-83
2022/04/09 09:48:50;;;;;;;3.97;3.57;;;;;;;5.82;61.95;96722.53;6179334;28;20720;-83
2022/04/09 09:52:05;;;;;;;3.97;3.63;;;;;;;5.84;60.84;96723.25;6179517;28;20236;-83
2022/04/09 09:55:14;;;;;;;4.47;4.07;;;;;;;5.86;61.53;96701.25;6163305;28;20777;-82
2022/04/09 09:58:18;;;;;;;6.33;3.50;;;;;;;5.74;61.11;96696.97;6162124;28;20735;-83
2022/04/09 10:01:47;;;;;;;3.47;3.17;;;;;;;5.77;60.16;96729.94;6181062;28;20237;-86
2022/04/09 10:04:51;;;;;;;4.30;3.83;;;;;;;5.89;61.71;96724.59;6177283;28;20732;-82
2022/04/09 10:07:53;;;;;;;6.70;3.47;;;;;;;6.01;61.54;96725.44;6178803;28;20221;-82
2022/04/09 10:10:59;;;;;;;4.27;3.87;;;;;;;6.05;59.19;96724.28;6178256;28;20605;-82
2022/04/09 10:14:03;;;;;;;4.23;3.83;;;;;;;6.06;60.46;96728.56;6178427;28;20275;-82
2022/04/09 10:17:09;;;;;;;4.20;3.50;;;;;;;6.03;59.28;96725.31;6179270;28;20225;-83
2022/04/09 10:20:12;;;;;;;5.67;3.50;;;;;;;5.85;59.51;96744.09;6182763;28;20240;-82
2022/04/09 10:23:16;;;;;;;3.70;3.40;;;;;;;5.83;59.62;96756.47;6179590;28;20725;-82
2022/04/09 10:26:18;;;;;;;3.83;3.20;;;;;;;5.91;59.99;96761.97;6183288;28;20693;-83
2022/04/09 10:29:20;;;;;;;5.27;3.47;;;;;;;6.00;60.59;96763.06;6178177;28;20570;-82
2022/04/09 10:32:43;;;;;;;3.50;3.20;;;;;;;6.03;61.34;96790.81;6196645;28;20702;-82
2022/04/09 10:35:46;;;;;;;2.77;2.57;;;;;;;6.08;62.12;96792.13;6163110;28;20241;-82
2022/04/09 10:39:39;;;;;;;4.50;2.63;;;;;;;6.03;62.03;96789.03;6178191;28;20229;-82
2022/04/09 10:42:48;;;;;;;3.43;2.50;;;;;;;6.05;62.37;96802.84;6175403;28;20256;-82
2022/04/09 10:46:06;;;;;;;5.50;3.10;;;;;;;5.98;62.64;96792.97;6161999;28;20743;-83
2022/04/09 10:49:19;;;;;;;5.47;2.40;;;;;;;6.01;62.77;96809.25;6162711;28;20719;-82
2022/04/09 10:52:23;;;;;;;3.30;2.03;;;;;;;5.97;63.48;96836.63;6177563;28;20613;-83
2022/04/09 10:55:31;;;;;;;4.90;1.83;;;;;;;6.01;63.51;96856.38;6178153;28;20747;-82
2022/04/09 10:59:05;;;;;;;4.37;1.90;;;;;;;6.00;64.21;96859.13;6169610;28;20233;-86
2022/04/09 11:02:09;;;;;;;2.50;2.10;;;;;;;5.92;65.72;96864.94;6154712;28;20230;-82
2022/04/09 11:05:23;;;;;;;2.30;2.00;;;;;;;5.93;64.32;96864.00;6160071;28;20230;-82
2022/04/09 11:08:25;;;;;;;3.90;2.30;;;;;;;6.00;64.50;96864.34;6157561;28;20230;-81
2022/04/09 11:11:28;;;;;;;2.43;2.23;;;;;;;6.07;65.08;96853.31;6158339;28;20240;-81
2022/04/09 11:14:41;;;;;;;3.63;2.67;;;;;;;6.05;65.39;96852.59;6174561;28;20233;-82
2022/04/09 11:17:46;;;;;;;2.53;2.33;;;;;;;6.10;65.30;96847.00;6175625;28;20229;-81
2022/04/09 11:20:49;;;;;;;3.27;2.73;;;;;;;6.32;64.73;96854.91;6181941;28;20224;-81
2022/04/09 11:24:06;;;;;;;3.97;3.00;;;;;;;6.33;64.37;96853.13;6182547;28;20735;-82
2022/04/09 11:27:10;;;;;;;3.40;2.97;;;;;;;6.24;64.27;96865.97;6158038;28;20236;-82
2022/04/09 11:30:13;;;;;;;4.23;2.90;;;;;;;6.39;63.78;96863.16;6175806;28;20226;-82
2022/04/09 11:33:15;;;;;;;4.20;3.43;;;;;;;6.35;64.93;96873.03;6199220;28;20229;-81
2022/04/09 11:36:21;;;;;;;4.57;3.70;;;;;;;6.34;64.66;96873.13;6169309;28;20210;-81
2022/04/09 11:39:25;;;;;;;4.00;3.50;;;;;;;6.25;64.34;96866.81;6167865;28;20230;-82
2022/04/09 11:42:29;;;;;;;3.47;3.07;;;;;;;6.32;64.55;96880.28;6183800;28;20249;-82
2022/04/09 11:45:32;;;;;;;4.00;3.60;;;;;;;6.19;64.14;96883.81;6168203;28;20232;-83
2022/04/09 11:48:34;;;;;;;4.53;3.50;;;;;;;6.26;64.35;96871.09;6165897;28;20241;-82
2022/04/09 11:51:37;;;;;;;5.23;4.07;;;;;;;6.28;64.73;96885.75;6183258;28;20262;-85
2022/04/09 11:54:40;;;;;;;3.73;3.43;;;;;;;6.32;64.15;96883.72;6152245;28;20242;-82
2022/04/09 11:57:54;;;;;;;4.53;3.80;;;;;;;6.36;63.39;96885.19;6181410;28;20240;-85
2022/04/09 12:00:57;;;;;;;5.23;3.63;;;;;;;6.16;63.01;96883.22;6157563;28;20233;-83
2022/04/09 12:03:59;;;;;;;3.73;3.43;;;;;;;6.18;63.48;96883.94;6170852;28;20889;-83
2022/04/09 12:07:03;;;;;;;4.80;4.30;;;;;;;6.28;63.96;96882.31;6157450;28;20242;-83
2022/04/09 12:10:06;;;;;;;6.17;4.57;;;;;;;6.23;64.87;96887.03;6157697;28;20282;-83
2022/04/09 12:13:08;;;;;;;5.27;4.37;;;;;;;6.08;65.45;96873.34;6176450;28;20233;-82
2022/04/09 12:16:10;;;;;;;4.90;4.40;;;;;;;5.95;66.21;96871.75;6181712;28;20704;-83
2022/04/09 12:19:14;;;;;;;5.33;4.47;;;;;;;6.15;65.74;96882.41;6165261;28;20807;-86
2022/04/09 12:22:20;;;;;;;5.67;4.30;;;;;;;6.10;65.72;96875.81;6163810;28;20714;-82
2022/04/09 12:25:35;;;;;;;6.80;5.00;;;;;;;6.01;65.13;96868.66;6181237;28;20243;-82
2022/04/09 12:28:37;;;;;;;5.73;5.13;;;;;;;5.88;67.24;96881.84;6149283;28;20541;-82
2022/04/09 12:31:41;;;;;;;5.60;4.30;;;;;;;5.71;65.87;96898.75;6136015;28;20606;-83
2022/04/09 12:35:04;;;;;;;5.20;4.47;;;;;;;5.74;67.05;96901.16;6181423;28;20258;-89
2022/04/09 12:38:07;;;;;;;5.23;4.70;;;;;;;5.88;66.94;96903.63;6180441;28;20233;-82
2022/04/09 12:41:09;;;;;;;5.87;5.10;;;;;;;6.01;65.89;96907.94;6164782;28;20236;-82
2022/04/09 12:44:35;;;;;;;4.70;3.90;;;;;;;6.21;66.73;96902.03;6172196;28;20245;-82
2022/04/09 12:47:40;;;;;;;4.73;4.10;;;;;;;6.27;64.34;96907.69;6169727;28;21088;-83
2022/04/09 12:50:47;;;;;;;6.93;3.73;;;;;;;6.29;64.94;96894.44;6180146;28;21028;-83
2022/04/09 12:53:51;;;;;;;5.73;3.70;;;;;;;6.25;64.98;96906.13;6170553;28;20269;-83
2022/04/09 12:56:54;;;;;;;5.07;4.30;;;;;;;6.25;66.51;96909.56;6180421;28;20217;-82
2022/04/09 12:59:56;;;;;;;5.00;4.07;;;;;;;6.41;66.21;96888.25;6165043;28;20232;-90
2022/04/09 13:03:01;;;;;;;5.23;4.33;;;;;;;6.64;66.79;96878.66;6180133;28;20321;-87
2022/04/09 13:06:04;;;;;;;4.67;3.70;;;;;;;6.89;66.06;96875.75;6125076;28;20240;-83
2022/04/09 13:09:10;;;;;;;6.13;3.90;;;;;;;7.36;65.16;96876.44;6163649;28;20209;-82
2022/04/09 13:12:13;;;;;;;3.60;3.13;;;;;;;7.82;62.54;96865.63;6164179;28;20222;-82
2022/04/09 13:15:15;;;;;;;4.27;3.40;;;;;;;7.88;62.33;96873.03;6180729;28;20607;-86
2022/04/09 13:18:17;;;;;;;5.17;3.37;;;;;;;8.12;63.26;96876.25;6164274;28;20222;-82
2022/04/09 13:21:19;;;;;;;3.67;2.93;;;;;;;8.21;60.21;96863.28;6180171;28;20595;-82
2022/04/09 13:24:21;;;;;;;3.33;3.03;;;;;;;7.91;59.74;96864.88;6179119;28;20235;-83
2022/04/09 13:27:24;;;;;;;3.77;3.10;;;;;;;8.01;61.27;96851.81;6164040;28;20221;-82
2022/04/09 13:30:27;;;;;;;4.13;2.93;;;;;;;7.92;60.99;96865.72;6188258;28;20611;-82
2022/04/09 13:33:29;;;;;;;4.37;2.53;;;;;;;7.68;59.06;96876.47;6158438;28;20231;-83
2022/04/09 13:36:31;;;;;;;2.80;2.13;;;;;;;7.82;61.39;96883.19;6164567;28;20230;-82
2022/04/09 13:39:33;;;;;;;3.73;2.17;;;;;;;7.87;59.94;96874.00;6172036;28;20234;-82
2022/04/09 13:42:35;;;;;;;2.60;1.90;;;;;;;8.03;58.99;96870.91;6166556;28;20235;-82
2022/04/09 13:45:43;;;;;;;1.80;1.70;;;;;;;7.84;58.20;96855.00;6164019;28;20285;-82
2022/04/09 13:48:45;;;;;;;4.60;2.30;;;;;;;8.11;57.19;96868.47;6178672;28;20249;-82
2022/04/09 13:51:54;;;;;;;2.53;2.10;;;;;;;8.34;57.96;96871.84;6178834;28;20833;-83
2022/04/09 13:54:56;;;;;;;1.70;1.60;;;;;;;8.79;57.26;96881.06;6178839;28;20241;-82
2022/04/09 13:57:58;;;;;;;2.03;1.83;;;;;;;8.82;56.47;96899.25;6154902;28;20319;-82
2022/04/09 14:01:00;;;;;;;3.10;2.37;;;;;;;8.63;57.54;96900.94;6167650;28;20246;-82
2022/04/09 14:04:03;;;;;;;2.63;2.40;;;;;;;9.03;55.70;96888.66;6163558;28;20241;-82
2022/04/09 14:07:05;;;;;;;4.27;2.10;;;;;;;8.78;55.39;96899.66;6178261;28;20253;-82
2022/04/09 14:10:08;;;;;;;2.43;1.80;;;;;;;8.26;57.54;96909.28;6178662;28;20245;-82
2022/04/09 14:13:10;;;;;;;3.03;2.20;;;;;;;8.25;57.63;96914.66;6178566;28;20775;-82
2022/04/09 14:16:12;;;;;;;3.80;1.87;;;;;;;8.07;57.43;96909.97;6162163;28;20225;-83
2022/04/09 14:19:15;;;;;;;2.40;1.40;;;;;;;8.17;58.03;96910.03;6167266;28;20294;-83
2022/04/09 14:22:17;;;;;;;1.80;1.40;;;;;;;8.35;56.41;96910.31;6185699;28;20238;-83
2022/04/09 14:25:19;;;;;;;1.40;1.10;;;;;;;8.43;54.04;96911.34;6180356;28;20237;-83
2022/04/09 14:28:26;;;;;;;1.23;1.10;;;;;;;8.41;51.51;96901.91;6168999;28;20234;-83
2022/04/09 14:31:30;;;;;;;1.07;0.80;;;;;;;8.57;54.41;96899.69;6165236;28;20230;-83
2022/04/09 14:34:32;;;;;;;0.93;0.73;;;;;;;8.69;50.91;96906.50;6164192;28;20239;-83
2022/04/09 14:37:34;;;;;;;0.90;0.70;;;;;;;9.87;48.79;96889.97;6176309;28;20239;-82
2022/04/09 14:40:37;;;;;;;0.70;0.70;;;;;;;11.36;45.43;96897.13;6189691;28;20314;-83
2022/04/09 14:43:40;;;;;;;2.40;0.60;;;;;;;12.29;43.46;96900.38;6162112;28;20725;-83
2022/04/09 14:46:42;;;;;;;0.87;0.80;;;;;;;13.54;39.33;96891.06;6166711;28;20618;-83
2022/04/09 14:49:44;;;;;;;1.60;0.70;;;;;;;13.28;40.45;96909.66;6183312;28;20671;-82
2022/04/09 14:52:46;;;;;;;1.30;0.63;;;;;;;13.63;39.09;96922.75;6166680;28;20246;-83
2022/04/09 14:55:48;;;;;;;0.70;0.70;;;;;;;13.26;40.44;96923.09;6178512;28;20237;-83
2022/04/09 14:58:54;;;;;;;1.10;0.50;;;;;;;12.46;40.96;96918.91;6174579;28;20258;-83
2022/04/09 15:01:59;;;;;;;0.83;0.50;;;;;;;12.25;41.46;96915.75;6145459;28;20241;-83
2022/04/09 15:05:06;;;;;;;2.73;0.60;;;;;;;12.52;39.70;96910.34;6166081;28;20225;-83
2022/04/09 15:08:08;;;;;;;0.70;0.50;;;;;;;13.09;38.73;96907.22;6182507;28;20239;-83
2022/04/09 15:11:16;;;;;;;0.63;0.43;;;;;;;13.65;37.72;96910.16;6168036;28;20233;-82
2022/04/09 15:14:18;;;;;;;1.03;0.60;;;;;;;12.46;38.73;96908.31;6185401;28;20231;-83
2022/04/09 15:17:20;;;;;;;1.20;0.50;;;;;;;10.35;42.65;96910.22;6184439;28;20229;-83
2022/04/09 15:20:23;;;;;;;0.50;0.50;;;;;;;9.93;45.64;96905.22;6166351;28;20225;-83
2022/04/09 15:23:25;;;;;;;0.77;0.43;;;;;;;9.45;47.38;96914.84;6184681;28;20235;-83
2022/04/09 15:26:27;;;;;;;1.13;0.60;;;;;;;8.87;49.20;96918.13;6182138;28;20607;-83
2022/04/09 15:29:31;;;;;;;0.70;0.60;;;;;;;8.80;49.51;96921.38;6170026;28;20236;-83
2022/04/09 15:32:38;;;;;;;1.80;0.60;;;;;;;8.52;49.47;96918.47;6182600;28;20237;-84
2022/04/09 15:35:40;;;;;;;0.80;0.60;;;;;;;8.49;49.84;96916.09;6166268;28;20223;-82
2022/04/09 15:38:42;;;;;;;0.57;0.33;;;;;;;8.48;50.37;96909.16;6181639;28;20238;-82